1997 GRETELLE (1997018S11059)


On this page: IBTrACS data - Map and Plots - Positions - Intensities - Original source data

Summary

Start Jan 18
End Jan 31
Basin SI
LMI 115 kt
Sources jtwc_sh
reunion
neumann
In WMO? Yes
Previous storm 1997 ILETTA (SI)
Previous in basin 1997 ILETTA (SI)
Concurrent storms 1997 EVAN (SP)
1997 HANNAH (WP)
1997 HELINDA (SI)
1997 ILETTA (SI)
1997 GRETELLE (SI)
1997 FREDA (SP)
1997 ILETTA (SI)
Next in basin 1997 ILETTA (SI)
Next storm 1997 FREDA (SP)

top of page IBTrACS Data: File Access

top of page HURSAT Data: File Access

Image of storm

top of page Plots:

Map of storm track will not appear if FTP is down
Time series of cyclone Maximum Sustained Wind will not appear if FTP is down
Time series of cyclone Minimum Central Pressure will not appear if FTP is down

top of page Track Data:Position

jtwc_sh reunion neumann
Date Lat Lon Lat Lon Lat Lon
1997-01-18 00:00:00 -11.1 58.8 -11.1 58.8
1997-01-18 06:00:00 -11.6 58.1 -11.6 58.1
1997-01-18 12:00:00 -12.4 57.9 -12.4 57.9
1997-01-18 18:00:00 -13.2 58.0 -13.2 58.0
1997-01-19 00:00:00 -13.9 58.1 -13.9 58.1
1997-01-19 06:00:00 -14.7 58.3 -14.7 58.3
1997-01-19 12:00:00 -15.4 58.5 -16.3 59.2 -15.4 58.5
1997-01-19 18:00:00 -15.8 58.5 -16.2 58.7 -15.8 58.5
1997-01-20 00:00:00 -16.1 58.2 -16.1 58.1 -16.1 58.2
1997-01-20 06:00:00 -16.3 57.7 -16.1 57.6 -16.3 57.7
1997-01-20 12:00:00 -16.6 57.1 -16.2 57.2 -16.6 57.1
1997-01-20 18:00:00 -16.9 56.6 -16.7 56.7 -16.9 56.6
1997-01-21 00:00:00 -17.1 56.2 -17.2 56.1 -17.1 56.2
1997-01-21 06:00:00 -17.3 55.9 -17.5 55.7 -17.3 55.9
1997-01-21 12:00:00 -17.6 55.7 -17.6 55.4 -17.6 55.7
1997-01-21 18:00:00 -17.8 55.3 -17.7 55.1 -17.8 55.3
1997-01-22 00:00:00 -17.8 54.9 -17.8 54.8 -17.8 54.9
1997-01-22 06:00:00 -18.0 54.5 -18.0 54.4 -18.0 54.5
1997-01-22 12:00:00 -18.3 54.1 -18.4 53.9 -18.3 54.1
1997-01-22 18:00:00 -18.7 53.7 -18.9 53.4 -18.7 53.7
1997-01-23 00:00:00 -19.4 53.2 -19.3 52.9 -19.4 53.2
1997-01-23 06:00:00 -20.0 52.3 -20.1 52.2 -20.0 52.3
1997-01-23 12:00:00 -20.7 51.6 -20.9 51.1 -20.7 51.6
1997-01-23 18:00:00 -21.4 50.7 -21.7 50.3 -21.4 50.7
1997-01-24 00:00:00 -22.1 49.6 -22.2 49.5 -22.1 49.6
jtwc_sh reunion neumann
1997-01-24 06:00:00 -22.6 48.5 -22.5 48.8 -22.6 48.5
1997-01-24 12:00:00 -22.8 47.5 -22.8 47.9 -22.8 47.5
1997-01-24 18:00:00 -23.0 46.5 -22.9 47.2 -23.0 46.5
1997-01-25 00:00:00 -23.3 45.7 -23.2 46.0 -23.3 45.7
1997-01-25 06:00:00 -23.6 44.8 -23.6 44.7 -23.6 44.8
1997-01-25 12:00:00 -23.9 43.8 -24.1 43.2 -23.9 43.8
1997-01-25 18:00:00 -24.1 42.7 -24.4 42.3 -24.1 42.7
1997-01-26 00:00:00 -24.3 41.6 -24.5 41.8 -24.3 41.6
1997-01-26 06:00:00 -24.7 40.8 -24.8 41.0 -24.7 40.8
1997-01-26 12:00:00 -25.0 40.1 -25.4 40.0 -25.0 40.1
1997-01-26 18:00:00 -25.4 39.4 -25.8 39.4 -25.4 39.4
1997-01-27 00:00:00 -25.7 38.8 -26.2 39.0 -25.7 38.8
1997-01-27 06:00:00 -26.0 38.3 -26.5 38.3 -26.0 38.3
1997-01-27 12:00:00 -26.3 37.6 -26.7 37.4 -26.3 37.6
1997-01-27 18:00:00 -26.2 36.9 -26.6 36.6 -26.2 36.9
1997-01-28 00:00:00 -26.2 36.6 -26.3 36.3 -26.2 36.6
1997-01-28 06:00:00 -26.2 36.3 -26.2 36.1 -26.2 36.3
1997-01-28 12:00:00 -26.3 36.1 -26.1 36.0 -26.3 36.1
1997-01-28 18:00:00 -26.4 36.3 -26.0 36.0 -26.4 36.3
1997-01-29 00:00:00 -26.5 36.5 -26.4 36.5 -26.5 36.5
1997-01-29 06:00:00 -26.5 36.8 -26.8 37.1 -26.5 36.8
1997-01-29 12:00:00 -26.6 37.1 -27.0 37.5 -26.6 37.1
1997-01-29 18:00:00 -27.0 37.4 -27.3 37.6 -27.0 37.4
1997-01-30 00:00:00 -27.5 37.5 -27.9 37.7 -27.5 37.5
jtwc_sh reunion neumann
1997-01-30 06:00:00 -28.1 37.7 -28.4 37.9 -28.1 37.7
1997-01-30 12:00:00 -28.6 38.0 -28.8 38.2 -28.6 38.0
1997-01-30 18:00:00 -29.1 38.6 -29.4 38.8 -29.1 38.6
1997-01-31 00:00:00 -29.9 39.0 -30.4 39.6 -29.9 39.0
1997-01-31 06:00:00 -31.2 39.3 -31.9 39.8 -31.2 39.3
1997-01-31 12:00:00 -33.0 39.7 -34.3 39.7 -33.0 39.7
1997-01-31 18:00:00 -35.1 40.0 -36.9 40.2 -35.1 40.0

top of pageTrack Data:Intensity

jtwc_sh reunion neumann
Date Wind Pres Wind Pres Wind Pres
1997-01-18 00:00:00 10. 10.
1997-01-18 06:00:00 15. 15.
1997-01-18 12:00:00 15. 15.
1997-01-18 18:00:00 15. 15.
1997-01-19 00:00:00 20. 20.
1997-01-19 06:00:00 20. 20.
1997-01-19 12:00:00 20. 15. 1006. 20.
1997-01-19 18:00:00 25. 20. 1003. 25.
1997-01-20 00:00:00 30. 25. 1000. 30.
1997-01-20 06:00:00 35. 30. 997. 35.
1997-01-20 12:00:00 40. 30. 995. 40.
1997-01-20 18:00:00 45. 35. 990. 45.
1997-01-21 00:00:00 45. 40. 987. 45.
1997-01-21 06:00:00 50. 45. 984. 50.
1997-01-21 12:00:00 55. 45. 984. 55.
1997-01-21 18:00:00 60. 45. 984. 60.
1997-01-22 00:00:00 65. 50. 980. 65.
1997-01-22 06:00:00 70. 55. 973. 70.
1997-01-22 12:00:00 75. 60. 965. 75.
1997-01-22 18:00:00 80. 70. 955. 80.
1997-01-23 00:00:00 85. 75. 950. 85.
1997-01-23 06:00:00 85. 75. 950. 85.
1997-01-23 12:00:00 90. 75. 950. 90.
1997-01-23 18:00:00 100. 75. 950. 100.
1997-01-24 00:00:00 110. 70. 955. 110.
jtwc_sh reunion neumann
1997-01-24 06:00:00 115. 70. 955. 115.
1997-01-24 12:00:00 115. 70. 955. 110.
1997-01-24 18:00:00 100. 70.
1997-01-25 00:00:00 85. 50.
1997-01-25 06:00:00 65. 40.
1997-01-25 12:00:00 45. 25. 995. 35.
1997-01-25 18:00:00 45. 25. 997. 35.
1997-01-26 00:00:00 45. 25. 997. 45.
1997-01-26 06:00:00 45. 25. 997. 45.
1997-01-26 12:00:00 45. 30. 995. 45.
1997-01-26 18:00:00 45. 30. 995. 45.
1997-01-27 00:00:00 45. 30. 995. 45.
1997-01-27 06:00:00 45. 35. 992. 45.
1997-01-27 12:00:00 45. 35. 992. 45.
1997-01-27 18:00:00 45. 35. 992. 45.
1997-01-28 00:00:00 45. 35. 992. 45.
1997-01-28 06:00:00 45. 35. 992. 45.
1997-01-28 12:00:00 50. 35. 990. 50.
1997-01-28 18:00:00 55. 35. 990. 55.
1997-01-29 00:00:00 65. 40. 987. 65.
1997-01-29 06:00:00 60. 40. 987. 60.
1997-01-29 12:00:00 55. 40. 987. 55.
1997-01-29 18:00:00 50. 40. 987. 50.
1997-01-30 00:00:00 45. 45. 984. 45.
jtwc_sh reunion neumann
1997-01-30 06:00:00 45. 45. 984. 45.
1997-01-30 12:00:00 40. 45. 984. 40.
1997-01-30 18:00:00 40. 45. 984. 40.
1997-01-31 00:00:00 35. 35. 990. 35.
1997-01-31 06:00:00 35. 35. 992. 35.
1997-01-31 12:00:00 30. 30.
1997-01-31 18:00:00 30. 30.

top of page Links to source data

Source Source file Format
jtwc_sh bsh201997.txt ATCF
reunion WMO-Best-Tracks.txt:Line=17804:gretelle WMO (old format)
neumann tracks.sh:Storm=1084:GRETELLE:BSH201997:JTWC HURDAT